Huvudsida
METAR-TAF:

METAR-TAF

Flygplatser :

Kivalina, Alaska, USA

latitud: 67-44N, longitud: 164-33W, höjd: 4 m

Aktuellt väderrapport

Denna rapport gjordes för 54 minuter sedan, klockan 23:07 UTC
Vind 10 kt från väst
Temperatur 2°C
Fuktighet 87%
Tryck 1015 hPa
Sikt: 2.0 km
Mulet på en höjd av 200 ft
fuktdis

METAR: PAVL 172307Z AUTO 27010KT 1 1/4SM BR OVC002 02/00 A2996 RMK AO2 T00220000 TSNO $

Tid: 16:01 (00:01 UTC)


TAF: saknas

Aktuella väderrapporter och prognoser från 4000 flygplatser (METAR- och TAF-rapporter).

De tillgängliga stationerna syns som gula och röda prickar på kartan.

För musen över prickarna för att se namnen på stationerna.

Klicka sedan för att få väderrapporter och prognoser.

För att ändra kartan: Klicka på de gröna knapparna med ett svart kors på för att zooma in; den gröna knappen med ett streck på för att zooma ut; eller på de gröna pilarna för angränsande kartor.


METAR-TAF: